Airfield :
LOGIN :

Register | Disclaimer

   EN    FR    IT 

 










Legend :    VFR   Marginal VFR   IFR   Intensive IFR   Very Intensive IFR
Visi :
Ceiling :
>= 8 km
>= 3000ft
5 to 8 km
1000 to 3000 ft
1500m to 5 km
500 to 1000 ft
800 to 1500m
200 to 500 ft
< 800m
< 200 ft
Symbols :   Thunderstorms  Fog  Heavy snow  Heavy precipitations  Wind > 20 kt
SIGMETs :     Misc.  Thunderstorms  Icing  Turbulence  Mountain Waves  Volcanic Ashes







- Airport Elevation : 13 ft
- IATA code : LYX
- Download approach charts


EGMD - Lydd

CURRENT METAR :
  • 210050Z AUTO 16009KT 9999 SCT018/// BKN024/// BKN030/// 05/02 Q1005

EXPIRED METARs :
  • 210020Z AUTO 15008KT 9999 SCT019/// BKN024/// OVC031/// 05/02 Q1005
  • 202350Z AUTO 13009KT 9999 BKN017/// BKN023/// OVC029/// 05/02 Q1005
  • 202320Z AUTO 13011KT 9999 SCT017/// BKN023/// OVC028/// 05/02 Q1005
  • 202250Z AUTO 13010KT 9999 BKN016/// BKN022/// OVC031/// 05/02 Q1005
  • 202220Z AUTO 12008KT 9999 FEW015/// SCT020/// BKN032/// 04/02 Q1005

TAF AMD TAF EGMD
Valid from the 21 at 01:00 until the 21 at 09:00 UTC


210107Z 2101/2109 16012KT 9999 SCT030
PROB40
TEMPO 2101/2106 3000 -SHRA BR BKN004
ATIS : +44 1797 322 422
No reported NOTAMs for that airfield.
2 SIGMETs reported for the London FIR (EGTT) :
 
Severe mountain waves
EGTT SIGMET 04 VALID 202100/210100 EGRR
EGTT LONDON FIR SEV MTW FCST WI N5355 W00132 - N5232 W00304 - N5221 W00530 - N5500 W00530 - N5500 W00159 - N5355 W00132 FL030/120 MOV N 05KT NC=
Severe mountain waves
EGTT SIGMET 01 VALID 210100/210500 EGRR
EGTT LONDON FIR SEV MTW FCST WI N5500 W00200 - N5356 W00130 - N5345 W00530 - N5500 W00532 - N5500 W00530 - N5500 W00200 FL030/120 MOV N 05KT WKN=



MET'MAP, your aeronautical weather chart ! - Copyright ORBIFLY December 2007 - Disclaimer

ORBIFLY MET'MAP TEAM :

Programming & Development : Alexandra Zaïnal
Concept & Development : Baudouin d'Aumeries
Co-Development & Prog : Marc-Olivier Méhu
Technical & hardware support : Manuel Goepfert

Contact : metmap@orbifly.com




SOURCES & CREDITS :

   NOAA